Time;durP1;ratioP1;P1;durP2;ratioP2;P2;SDS_P1;SDS_P2;PMS_P1;PMS_P2;Temp;Humidity;BMP_temperature;BMP_pressure;BME280_temperature;BME280_humidity;BME280_pressure;Samples;Min_cycle;Max_cycle;Signal;HPM_P1;HPM_P2
2023/05/04 00:00:58;;;;;;;18.83;6.72;;;;;;;12.33;100.00;100778.13;5028331;28;20037;-81
2023/05/04 00:03:24;;;;;;;13.80;7.40;;;;;;;12.43;100.00;100796.63;5028546;28;20025;-81
2023/05/04 00:05:49;;;;;;;17.15;6.72;;;;;;;12.31;100.00;100785.81;4997997;28;20460;-81
2023/05/04 00:08:15;;;;;;;13.38;6.55;;;;;;;12.48;100.00;100821.81;5000809;28;20419;-79
2023/05/04 00:10:41;;;;;;;13.27;5.70;;;;;;;12.10;100.00;100736.78;5018508;28;20080;-80
2023/05/04 00:13:06;;;;;;;15.30;5.65;;;;;;;12.57;100.00;100823.00;5017238;28;20048;-79
2023/05/04 00:15:31;;;;;;;14.00;6.03;;;;;;;12.43;100.00;100804.38;5019442;28;20359;-80
2023/05/04 00:17:57;;;;;;;17.20;6.47;;;;;;;11.89;100.00;100721.38;5019415;28;20036;-80
2023/05/04 00:20:22;;;;;;;19.77;6.97;;;;;;;12.31;100.00;100803.94;5032619;28;20043;-79
2023/05/04 00:22:48;;;;;;;14.55;7.03;;;;;;;12.45;100.00;100831.22;5050499;28;20024;-79
2023/05/04 00:25:13;;;;;;;11.07;6.13;;;;;;;11.88;100.00;100750.66;5050588;28;20458;-81
2023/05/04 00:27:38;;;;;;;14.02;5.30;;;;;;;12.25;100.00;100840.88;5032362;28;20663;-80
2023/05/04 00:30:05;;;;;;;11.18;5.32;;;;;;;11.95;100.00;100774.22;5049373;28;20422;-80
2023/05/04 00:32:30;;;;;;;10.60;5.18;;;;;;;12.36;100.00;100820.56;5050257;28;20510;-80
2023/05/04 00:34:56;;;;;;;12.05;5.57;;;;;;;11.97;100.00;100748.41;5050930;28;20054;-79
2023/05/04 00:37:21;;;;;;;12.25;5.57;;;;;;;12.53;100.00;100841.84;5051166;28;20032;-80
2023/05/04 00:39:47;;;;;;;9.98;5.78;;;;;;;12.43;100.00;100814.75;5032591;28;20465;-80
2023/05/04 00:42:12;;;;;;;8.98;5.43;;;;;;;12.48;100.00;100824.41;5050205;28;20566;-80
2023/05/04 00:44:40;;;;;;;7.75;4.85;;;;;;;12.42;100.00;100848.34;5050594;28;20025;-79
2023/05/04 00:47:06;;;;;;;9.40;5.05;;;;;;;11.97;100.00;100782.06;5050457;28;20109;-80
2023/05/04 00:49:32;;;;;;;7.90;4.97;;;;;;;12.11;100.00;100795.47;5032953;28;20470;-80
2023/05/04 00:52:01;;;;;;;9.75;5.10;;;;;;;12.24;100.00;100817.53;5050283;28;20029;-80
2023/05/04 00:54:28;;;;;;;7.65;5.07;;;;;;;12.22;100.00;100817.44;5050524;28;20052;-80
2023/05/04 00:56:53;;;;;;;8.90;4.60;;;;;;;12.34;100.00;100832.56;5032336;28;20112;-80
2023/05/04 00:59:19;;;;;;;8.85;4.93;;;;;;;12.17;100.00;100792.25;5032611;28;20107;-81
2023/05/04 01:01:44;;;;;;;7.93;4.50;;;;;;;12.18;100.00;100792.28;5032523;28;20052;-80
2023/05/04 01:04:11;;;;;;;9.55;4.60;;;;;;;11.87;100.00;100721.28;5050165;28;20024;-81
2023/05/04 01:06:51;;;;;;;8.82;4.53;;;;;;;12.05;100.00;100759.94;5032388;28;20029;-78
2023/05/04 01:09:22;;;;;;;8.18;4.60;;;;;;;12.41;100.00;100806.06;5050003;28;20025;-81
2023/05/04 01:12:07;;;;;;;7.93;4.75;;;;;;;12.43;100.00;100806.09;5050304;28;20040;-80
2023/05/04 01:14:34;;;;;;;9.48;4.95;;;;;;;11.89;100.00;100701.53;5050218;28;20047;-80
2023/05/04 01:17:04;;;;;;;7.85;4.82;;;;;;;12.45;100.00;100792.38;5050494;28;20186;-80
2023/05/04 01:19:29;;;;;;;7.47;4.35;;;;;;;12.46;100.00;100801.00;5007810;28;20761;-80
2023/05/04 01:21:58;;;;;;;9.20;4.75;;;;;;;12.08;100.00;100733.28;5007880;28;20034;-80
2023/05/04 01:24:25;;;;;;;8.52;4.30;;;;;;;12.39;100.00;100788.72;4991626;28;20412;-80
2023/05/04 01:27:08;;;;;;;8.15;4.53;;;;;;;12.18;100.00;100773.31;5008276;28;20021;-80
2023/05/04 01:29:43;;;;;;;8.90;4.60;;;;;;;12.32;100.00;100799.66;5008058;28;20109;-81
2023/05/04 01:32:13;;;;;;;7.43;4.88;;;;;;;12.26;100.00;100789.97;5007917;28;20045;-81
2023/05/04 01:34:40;;;;;;;9.07;5.18;;;;;;;12.22;100.00;100788.09;5008336;28;20117;-81
2023/05/04 01:37:06;;;;;;;8.88;4.63;;;;;;;12.09;100.00;100771.28;5008093;28;20045;-80
2023/05/04 01:39:31;;;;;;;8.45;4.88;;;;;;;12.12;100.00;100777.44;5007972;28;20022;-80
2023/05/04 01:41:58;;;;;;;8.27;5.15;;;;;;;11.98;100.00;100745.88;5011517;28;20058;-80
2023/05/04 01:44:23;;;;;;;11.52;5.25;;;;;;;12.09;100.00;100759.19;5012020;28;20065;-81
2023/05/04 01:46:49;;;;;;;10.25;5.18;;;;;;;12.12;100.00;100767.09;5012009;28;20029;-80
2023/05/04 01:49:14;;;;;;;9.90;4.93;;;;;;;11.40;100.00;100655.81;5011812;28;20038;-81
2023/05/04 01:51:40;;;;;;;9.10;5.18;;;;;;;12.22;100.00;100783.81;4995154;28;20041;-80
2023/05/04 01:54:05;;;;;;;10.00;5.35;;;;;;;12.16;100.00;100778.41;5011785;28;20096;-80
2023/05/04 01:56:31;;;;;;;10.15;4.63;;;;;;;12.06;100.00;100765.97;5025434;28;20423;-81
2023/05/04 01:58:56;;;;;;;9.18;5.15;;;;;;;12.36;100.00;100815.38;5035949;28;20470;-81
2023/05/04 02:01:22;;;;;;;8.85;5.10;;;;;;;12.33;100.00;100812.66;5053605;28;20040;-80
2023/05/04 02:03:47;;;;;;;9.27;4.75;;;;;;;12.45;100.00;100807.06;5054114;28;20025;-81
2023/05/04 02:06:12;;;;;;;8.35;4.72;;;;;;;12.57;100.00;100833.38;5052389;28;20033;-80
2023/05/04 02:08:38;;;;;;;7.90;5.00;;;;;;;12.57;100.00;100837.66;5053448;28;20500;-80
2023/05/04 02:11:03;;;;;;;8.38;4.63;;;;;;;12.54;100.00;100834.97;5053995;28;20041;-81
2023/05/04 02:13:30;;;;;;;11.25;5.30;;;;;;;12.49;100.00;100831.34;5035458;28;20021;-81
2023/05/04 02:15:55;;;;;;;7.28;4.32;;;;;;;12.38;100.00;100810.25;5035119;28;20178;-81
2023/05/04 02:18:21;;;;;;;6.80;4.30;;;;;;;12.22;100.00;100783.81;5053506;28;20144;-81
2023/05/04 02:20:46;;;;;;;10.15;4.85;;;;;;;12.28;100.00;100781.44;5053410;28;20029;-81
2023/05/04 02:23:12;;;;;;;6.57;4.47;;;;;;;12.43;100.00;100817.31;5052029;28;20530;-81
2023/05/04 02:25:40;;;;;;;12.20;5.07;;;;;;;12.43;100.00;100825.09;5053209;28;20033;-81
2023/05/04 02:28:06;;;;;;;8.40;4.38;;;;;;;12.48;100.00;100827.00;5053057;28;20025;-81
2023/05/04 02:30:31;;;;;;;8.27;4.75;;;;;;;12.41;100.00;100820.69;5053142;28;20048;-81
2023/05/04 02:32:57;;;;;;;9.73;4.78;;;;;;;12.43;100.00;100829.41;5052896;28;20041;-81
2023/05/04 02:35:22;;;;;;;7.90;4.60;;;;;;;12.29;100.00;100822.03;5052949;28;20041;-81
2023/05/04 02:37:47;;;;;;;8.68;4.57;;;;;;;12.43;100.00;100819.91;5053220;28;20036;-81
2023/05/04 02:40:13;;;;;;;12.73;5.03;;;;;;;12.46;100.00;100822.63;5035146;28;20433;-81
2023/05/04 02:42:38;;;;;;;8.73;4.30;;;;;;;12.38;100.00;100800.75;5053170;28;20387;-81
2023/05/04 02:45:06;;;;;;;8.15;3.92;;;;;;;12.32;100.00;100792.78;5034738;28;20376;-81
2023/05/04 02:47:31;;;;;;;8.80;4.45;;;;;;;12.43;100.00;100800.94;5035252;28;20056;-81
2023/05/04 02:49:57;;;;;;;7.40;3.97;;;;;;;12.40;100.00;100788.75;5053005;28;20418;-81
2023/05/04 02:52:22;;;;;;;7.25;4.20;;;;;;;12.39;100.00;100792.16;5033984;28;20163;-81
2023/05/04 02:54:48;;;;;;;6.85;4.07;;;;;;;12.59;100.00;100813.56;5051760;28;20029;-82
2023/05/04 02:57:13;;;;;;;6.57;4.13;;;;;;;12.46;100.00;100783.78;5052989;28;20039;-81
2023/05/04 02:59:38;;;;;;;6.57;4.22;;;;;;;12.70;100.00;100821.72;5052453;28;20040;-82
2023/05/04 03:02:04;;;;;;;15.68;5.32;;;;;;;12.61;100.00;100795.47;5034585;28;20037;-82
2023/05/04 03:04:29;;;;;;;20.67;5.25;;;;;;;12.66;100.00;100808.59;5052801;28;20545;-81
2023/05/04 03:06:55;;;;;;;16.15;5.93;;;;;;;12.31;100.00;100747.00;5034534;28;20035;-80
2023/05/04 03:09:21;;;;;;;23.77;7.22;;;;;;;12.62;100.00;100798.16;5034463;28;20031;-82
2023/05/04 03:11:46;;;;;;;13.50;6.18;;;;;;;12.61;100.00;100798.06;5052499;28;20394;-81
2023/05/04 03:14:12;;;;;;;19.95;6.82;;;;;;;12.39;100.00;100770.59;5034518;28;20025;-82
2023/05/04 03:16:37;;;;;;;28.60;7.70;;;;;;;12.58;100.00;100804.03;5052447;28;20479;-82
2023/05/04 03:19:02;;;;;;;20.83;7.47;;;;;;;12.50;100.00;100789.97;5051945;28;20037;-82
2023/05/04 03:21:28;;;;;;;23.30;8.02;;;;;;;12.35;100.00;100782.53;5052222;28;20094;-82
2023/05/04 03:23:54;;;;;;;23.15;8.35;;;;;;;12.46;100.00;100812.28;5052083;28;20025;-83
2023/05/04 03:26:20;;;;;;;27.58;7.30;;;;;;;11.88;100.00;100711.84;5012834;28;20029;-84
2023/05/04 03:28:45;;;;;;;22.13;7.13;;;;;;;12.32;100.00;100795.38;5030273;28;20778;-82
2023/05/04 03:31:11;;;;;;;33.92;9.43;;;;;;;11.81;100.00;100703.88;5014334;28;20423;-82
2023/05/04 03:33:36;;;;;;;27.80;9.27;;;;;;;12.29;100.00;100787.50;5031853;28;20034;-82
2023/05/04 03:36:02;;;;;;;25.67;8.68;;;;;;;12.34;100.00;100795.44;5014171;28;20040;-83
2023/05/04 03:38:28;;;;;;;26.73;8.38;;;;;;;12.38;100.00;100800.75;5032167;28;20025;-82
2023/05/04 03:40:53;;;;;;;31.38;9.43;;;;;;;12.38;100.00;100805.06;5014028;28;20031;-82
2023/05/04 03:43:18;;;;;;;26.98;7.68;;;;;;;11.24;100.00;100619.09;5013839;28;20128;-83
2023/05/04 03:45:47;;;;;;;26.40;8.27;;;;;;;12.23;100.00;100795.06;5031966;28;20026;-83
2023/05/04 03:48:12;;;;;;;25.90;8.32;;;;;;;12.33;100.00;100814.38;5014182;28;20056;-83
2023/05/04 03:50:38;;;;;;;24.55;7.75;;;;;;;12.18;100.00;100812.13;5018097;28;21186;-84
2023/05/04 03:53:04;;;;;;;15.18;6.60;;;;;;;12.08;100.00;100800.56;5032996;28;20106;-84
2023/05/04 03:55:30;;;;;;;20.75;7.47;;;;;;;12.13;100.00;100819.72;5023283;28;20041;-83
2023/05/04 03:57:55;;;;;;;24.13;7.60;;;;;;;12.13;100.00;100833.53;5025129;28;20503;-85
2023/05/04 04:00:21;;;;;;;14.68;5.75;;;;;;;12.30;100.00;100860.03;5019818;28;20046;-85
2023/05/04 04:02:46;;;;;;;15.07;6.22;;;;;;;11.60;100.00;100724.66;5019694;28;20038;-85
2023/05/04 04:05:11;;;;;;;20.83;7.03;;;;;;;12.43;100.00;100863.06;5018619;28;20042;-85
2023/05/04 04:07:37;;;;;;;15.85;5.78;;;;;;;12.32;100.00;100835.91;5001465;28;20056;-85
2023/05/04 04:10:03;;;;;;;12.95;5.10;;;;;;;12.02;100.00;100795.16;5002813;28;20029;-85
2023/05/04 04:12:48;;;;;;;8.48;5.35;;;;;;;12.49;100.00;100871.06;5003089;28;20045;-86
2023/05/04 04:15:14;;;;;;;8.43;4.90;;;;;;;12.48;100.00;100851.16;4988952;28;20134;-86
2023/05/04 04:17:40;;;;;;;10.85;5.18;;;;;;;12.19;100.00;100812.19;4989521;28;20050;-85
2023/05/04 04:20:06;;;;;;;11.77;5.18;;;;;;;12.54;100.00;100879.00;4972855;28;20034;-87
2023/05/04 04:22:32;;;;;;;13.07;6.07;;;;;;;12.20;100.00;100839.84;4989174;28;20054;-81
2023/05/04 04:24:57;;;;;;;10.57;5.90;;;;;;;12.35;100.00;100883.50;4970139;28;20035;-92
2023/05/04 04:27:23;;;;;;;10.77;5.80;;;;;;;12.17;100.00;100851.78;4969937;28;20543;-88
2023/05/04 04:29:48;;;;;;;8.30;5.13;;;;;;;12.24;100.00;100877.06;4969600;28;20486;-82
2023/05/04 04:32:14;;;;;;;9.02;5.40;;;;;;;11.80;100.00;100809.84;4950393;28;20146;-82
2023/05/04 04:34:39;;;;;;;11.68;5.85;;;;;;;12.01;100.00;100850.31;4956901;28;20047;-84
2023/05/04 04:37:05;;;;;;;9.00;5.25;;;;;;;11.09;100.00;100706.34;4950199;29;20035;-83
2023/05/04 04:39:31;;;;;;;9.63;5.18;;;;;;;11.54;100.00;100788.16;4934303;29;20094;-82
2023/05/04 04:41:57;;;;;;;9.75;5.25;;;;;;;11.74;100.00;100818.28;4950614;28;20090;-83
2023/05/04 04:44:22;;;;;;;9.30;5.15;;;;;;;11.90;100.00;100853.38;4950565;29;20039;-82
2023/05/04 04:46:48;;;;;;;11.85;5.18;;;;;;;11.96;100.00;100863.97;4930803;29;20180;-83
2023/05/04 04:49:13;;;;;;;9.23;5.00;;;;;;;11.51;100.00;100776.00;4950368;29;20067;-82
2023/05/04 04:51:41;;;;;;;19.05;5.53;;;;;;;12.05;100.00;100855.69;4934071;28;20563;-82
2023/05/04 04:54:06;;;;;;;9.77;5.38;;;;;;;12.09;100.00;100873.06;4972292;28;20431;-83
2023/05/04 04:56:32;;;;;;;17.00;6.43;;;;;;;12.06;100.00;100870.38;5019703;28;20042;-82
2023/05/04 04:58:58;;;;;;;14.02;5.50;;;;;;;11.84;100.00;100828.94;5013101;28;20037;-82
2023/05/04 05:01:25;;;;;;;10.55;4.70;;;;;;;12.07;100.00;100859.19;5012938;28;20132;-84
2023/05/04 05:03:50;;;;;;;8.27;4.97;;;;;;;11.99;100.00;100852.88;5029547;28;20025;-83
2023/05/04 05:06:16;;;;;;;8.02;4.80;;;;;;;11.98;100.00;100861.44;5030886;28;20554;-83
2023/05/04 05:08:42;;;;;;;8.10;5.75;;;;;;;11.97;100.00;100855.41;5030463;28;20038;-83
2023/05/04 05:11:09;;;;;;;9.77;5.40;;;;;;;12.10;100.00;100872.25;5012817;28;20033;-84
2023/05/04 05:13:34;;;;;;;8.98;4.80;;;;;;;12.16;100.00;100875.88;5013004;28;20021;-85
2023/05/04 05:16:00;;;;;;;7.20;5.20;;;;;;;12.18;100.00;100869.94;5016832;28;20090;-84
2023/05/04 05:18:26;;;;;;;9.48;4.82;;;;;;;11.92;100.00;100831.00;5037250;28;20112;-84
2023/05/04 05:20:51;;;;;;;7.25;4.80;;;;;;;11.92;100.00;100854.28;5037179;28;20094;-85
2023/05/04 05:23:17;;;;;;;8.73;5.65;;;;;;;11.96;100.00;100847.56;5019344;28;20029;-83
2023/05/04 05:25:43;;;;;;;13.80;5.90;;;;;;;12.17;100.00;100890.59;5037108;28;20411;-84
2023/05/04 05:28:08;;;;;;;10.57;5.65;;;;;;;12.20;100.00;100882.94;5036961;28;20033;-83
2023/05/04 05:30:34;;;;;;;9.52;5.20;;;;;;;12.19;100.00;100876.88;5043811;28;20056;-84
2023/05/04 05:32:59;;;;;;;7.60;4.95;;;;;;;12.16;100.00;100878.47;5057222;28;20021;-84
2023/05/04 05:35:25;;;;;;;11.90;6.05;;;;;;;12.24;100.00;100892.59;5057202;28;20036;-83
2023/05/04 05:37:51;;;;;;;11.55;5.78;;;;;;;11.75;100.00;100806.22;5057050;28;20493;-84
2023/05/04 05:40:17;;;;;;;12.63;5.63;;;;;;;12.04;100.00;100835.78;5038629;28;20037;-84
2023/05/04 05:42:43;;;;;;;13.95;6.38;;;;;;;11.82;100.00;100785.81;5039110;28;20028;-84
2023/05/04 05:45:09;;;;;;;14.68;5.82;;;;;;;12.20;100.00;100838.94;5055688;28;20116;-84
2023/05/04 05:47:35;;;;;;;16.50;7.15;;;;;;;12.37;100.00;100857.66;5038629;28;20534;-85
2023/05/04 05:50:05;;;;;;;20.95;8.98;;;;;;;12.23;100.00;100837.34;5055480;28;20040;-85
2023/05/04 05:52:30;;;;;;;17.88;7.32;;;;;;;12.12;100.00;100810.19;5038431;28;20116;-85
2023/05/04 05:54:56;;;;;;;18.92;7.63;;;;;;;12.12;100.00;100821.44;5038844;28;20074;-83
2023/05/04 05:57:21;;;;;;;16.73;8.00;;;;;;;12.49;100.00;100890.91;5056887;28;20083;-84
2023/05/04 05:59:47;;;;;;;16.42;7.35;;;;;;;12.54;100.00;100903.19;5056621;28;20417;-84
2023/05/04 06:02:13;;;;;;;13.25;7.10;;;;;;;12.36;100.00;100880.09;5056617;28;20039;-83
2023/05/04 06:04:41;;;;;;;12.82;6.78;;;;;;;12.34;100.00;100889.50;5056584;28;20588;-85
2023/05/04 06:07:07;;;;;;;13.35;6.55;;;;;;;12.20;100.00;100857.94;5056584;28;20393;-86
2023/05/04 06:09:33;;;;;;;11.23;6.82;;;;;;;12.49;100.00;100921.97;5038738;28;20029;-85
2023/05/04 06:11:59;;;;;;;14.30;8.13;;;;;;;12.39;100.00;100889.69;5055303;28;20032;-84
2023/05/04 06:14:24;;;;;;;13.35;7.72;;;;;;;12.29;100.00;100857.41;5056451;28;20029;-85
2023/05/04 06:16:50;;;;;;;13.00;7.30;;;;;;;12.29;100.00;100860.00;5038654;28;20509;-85
2023/05/04 06:19:16;;;;;;;19.52;8.00;;;;;;;12.46;100.00;100892.56;5038689;28;20037;-84
2023/05/04 06:21:42;;;;;;;15.35;7.93;;;;;;;12.64;100.00;100913.88;5056362;28;20021;-84
2023/05/04 06:24:07;;;;;;;23.25;7.60;;;;;;;12.63;100.00;100905.22;5056494;28;20032;-85
2023/05/04 06:26:33;;;;;;;16.52;8.32;;;;;;;12.57;100.00;100886.88;5054637;28;20048;-85
2023/05/04 06:28:58;;;;;;;9.95;6.43;;;;;;;12.49;100.00;100867.59;5052949;28;20104;-84
2023/05/04 06:31:24;;;;;;;9.15;6.57;;;;;;;12.80;100.00;100913.59;5053342;28;20132;-84
2023/05/04 06:33:49;;;;;;;8.50;5.25;;;;;;;12.86;100.00;100915.50;5035148;28;20051;-85
2023/05/04 06:36:15;;;;;;;8.68;6.32;;;;;;;12.86;100.00;100910.31;5035443;28;20032;-85
2023/05/04 06:38:41;;;;;;;8.25;6.00;;;;;;;12.88;100.00;100911.25;5035356;28;20392;-83
2023/05/04 06:41:06;;;;;;;6.95;5.80;;;;;;;12.99;100.00;100928.06;5052954;28;20040;-84
2023/05/04 06:43:32;;;;;;;15.32;8.18;;;;;;;12.81;100.00;100881.66;5035227;28;20025;-84
2023/05/04 06:46:03;;;;;;;9.95;6.15;;;;;;;12.79;100.00;100881.59;5053209;28;20029;-86
2023/05/04 06:48:32;;;;;;;8.75;6.30;;;;;;;12.25;100.00;100803.72;5052959;28;20029;-86
2023/05/04 06:50:57;;;;;;;11.90;6.38;;;;;;;12.71;100.00;100876.97;5052960;28;20025;-84
2023/05/04 06:53:23;;;;;;;13.30;6.82;;;;;;;12.48;100.00;100840.81;5053105;28;20031;-85
2023/05/04 06:55:49;;;;;;;8.57;6.28;;;;;;;12.89;100.00;100907.84;5035110;28;20064;-86
2023/05/04 06:58:20;;;;;;;9.75;5.30;;;;;;;12.71;100.00;100883.06;5035085;28;20056;-85
2023/05/04 07:00:46;;;;;;;10.55;5.88;;;;;;;12.87;100.00;100914.66;5034987;28;20467;-85
2023/05/04 07:03:12;;;;;;;10.68;5.60;;;;;;;12.57;100.00;100858.38;5052685;28;20071;-85
2023/05/04 07:05:37;;;;;;;9.45;6.70;;;;;;;12.75;100.00;100873.69;5052347;28;20498;-85
2023/05/04 07:08:02;;;;;;;7.22;5.90;;;;;;;12.74;100.00;100888.34;5034936;28;20107;-86
2023/05/04 07:10:28;;;;;;;11.30;6.63;;;;;;;12.80;100.00;100890.28;5034884;28;20033;-87
2023/05/04 07:12:54;;;;;;;9.65;6.28;;;;;;;12.85;100.00;100905.97;5034711;28;20075;-85
2023/05/04 07:15:20;;;;;;;10.55;6.18;;;;;;;12.55;100.00;100847.97;5034613;28;20127;-85
2023/05/04 07:17:46;;;;;;;10.65;6.13;;;;;;;12.42;100.00;100809.50;5034426;28;20025;-86
2023/05/04 07:20:13;;;;;;;13.65;7.40;;;;;;;13.01;100.00;100904.78;5052178;28;20083;-86
2023/05/04 07:22:39;;;;;;;11.75;6.97;;;;;;;13.07;100.00;100903.28;5034707;28;20056;-86
2023/05/04 07:25:05;;;;;;;9.45;6.57;;;;;;;13.14;100.00;100906.97;5034624;28;20059;-86
2023/05/04 07:27:30;;;;;;;12.80;6.82;;;;;;;13.18;100.00;100906.22;5034404;28;20078;-86
2023/05/04 07:29:56;;;;;;;11.68;6.75;;;;;;;13.19;100.00;100910.56;5034309;28;20410;-86
2023/05/04 07:32:22;;;;;;;12.15;6.63;;;;;;;13.25;100.00;100905.59;5052551;28;20017;-85
2023/05/04 07:34:47;;;;;;;11.50;7.60;;;;;;;13.24;100.00;100913.34;5051732;28;20053;-85
2023/05/04 07:37:14;;;;;;;11.45;8.02;;;;;;;13.02;100.00;100875.44;5034253;28;20039;-86
2023/05/04 07:39:39;;;;;;;11.23;7.60;;;;;;;13.23;100.00;100914.16;5051665;28;20021;-86
2023/05/04 07:42:06;;;;;;;11.50;7.50;;;;;;;12.90;100.00;100862.97;5034016;28;20517;-86
2023/05/04 07:44:32;;;;;;;13.90;7.65;;;;;;;12.90;100.00;100853.47;5051831;28;20024;-86
2023/05/04 07:46:58;;;;;;;10.93;7.35;;;;;;;13.09;100.00;100896.44;5050815;28;20033;-85
2023/05/04 07:49:23;;;;;;;11.80;8.85;;;;;;;13.23;100.00;100901.19;5009287;28;20423;-86
2023/05/04 07:51:49;;;;;;;12.70;8.25;;;;;;;13.16;100.00;100902.72;5009683;28;20042;-87
2023/05/04 07:54:15;;;;;;;14.02;8.85;;;;;;;12.84;100.00;100862.75;4993323;28;20045;-86
2023/05/04 07:56:40;;;;;;;15.50;8.13;;;;;;;12.92;100.00;100888.09;4993295;28;20034;-85
2023/05/04 07:59:06;;;;;;;15.73;9.23;;;;;;;13.07;100.00;100897.22;5009451;28;20042;-86
2023/05/04 08:01:31;;;;;;;13.25;9.20;;;;;;;12.77;100.00;100849.59;4993087;28;20049;-87
2023/05/04 08:03:57;;;;;;;14.40;9.30;;;;;;;13.23;100.00;100906.38;5009322;28;20041;-85
2023/05/04 08:06:22;;;;;;;13.50;10.15;;;;;;;12.63;100.00;100793.84;5009391;28;20065;-86
2023/05/04 08:08:48;;;;;;;16.63;10.80;;;;;;;13.29;100.00;100910.91;4993027;28;20080;-86
2023/05/04 08:11:15;;;;;;;19.08;10.13;;;;;;;12.88;100.00;100860.28;4993034;28;20030;-86
2023/05/04 08:13:40;;;;;;;15.38;9.60;;;;;;;13.14;100.00;100911.28;5009580;28;20037;-86
2023/05/04 08:16:08;;;;;;;15.88;9.75;;;;;;;13.14;100.00;100919.06;5009370;28;20060;-86
2023/05/04 08:18:33;;;;;;;14.68;9.57;;;;;;;13.00;100.00;100872.81;4992796;28;20419;-88
2023/05/04 08:20:58;;;;;;;14.25;11.02;;;;;;;13.13;100.00;100917.28;5018583;28;20037;-86
2023/05/04 08:23:24;;;;;;;16.77;12.13;;;;;;;13.25;100.00;100910.78;5033118;28;20124;-86
2023/05/04 08:25:51;;;;;;;19.20;11.82;;;;;;;13.30;100.00;100910.94;5027072;28;20035;-87
2023/05/04 08:28:17;;;;;;;18.58;11.65;;;;;;;12.37;100.00;100739.44;5050948;28;20086;-87
2023/05/04 08:30:42;;;;;;;20.65;10.95;;;;;;;13.36;100.00;100913.75;5033305;28;20045;-87
2023/05/04 08:33:08;;;;;;;14.27;9.82;;;;;;;13.44;100.00;100914.00;5032960;28;20025;-87
2023/05/04 08:35:33;;;;;;;16.70;11.10;;;;;;;12.94;100.00;100839.78;5051066;28;20039;-87
2023/05/04 08:38:00;;;;;;;18.00;12.80;;;;;;;12.71;100.00;100794.97;5033192;28;20187;-88
2023/05/04 08:40:26;;;;;;;17.52;12.25;;;;;;;13.25;100.00;100882.25;5033239;28;20516;-86
2023/05/04 08:42:52;;;;;;;16.42;10.05;;;;;;;13.35;100.00;100899.00;5033226;28;20066;-87
2023/05/04 08:45:18;;;;;;;19.70;13.15;;;;;;;13.35;100.00;100903.31;5033090;28;20037;-89
2023/05/04 08:47:44;;;;;;;19.90;10.93;;;;;;;13.24;100.00;100895.19;5032648;28;20028;-86
2023/05/04 08:50:10;;;;;;;16.40;10.27;;;;;;;13.27;100.00;100892.69;5032482;28;20049;-87
2023/05/04 08:52:37;;;;;;;14.65;9.90;;;;;;;13.42;100.00;100919.16;5032917;28;20028;-87
2023/05/04 08:55:04;;;;;;;11.63;9.27;;;;;;;13.45;100.00;100915.78;5050655;28;20032;-86
2023/05/04 08:57:30;;;;;;;11.93;9.00;;;;;;;13.49;100.00;100909.84;5051115;28;20025;-88
2023/05/04 08:59:57;;;;;;;15.02;10.02;;;;;;;13.59;100.00;100908.44;5032333;28;20033;-88
2023/05/04 09:02:23;;;;;;;14.32;10.95;;;;;;;13.57;100.00;100910.09;5049605;28;20035;-86
2023/05/04 09:04:53;;;;;;;14.45;10.57;;;;;;;13.23;100.00;100849.34;5032645;28;20029;-87
2023/05/04 09:07:20;;;;;;;16.35;9.55;;;;;;;13.16;100.00;100831.81;5032623;28;20025;-87
2023/05/04 09:09:47;;;;;;;14.68;10.05;;;;;;;13.63;100.00;100915.47;5032597;28;20374;-86
2023/05/04 09:12:12;;;;;;;17.05;11.15;;;;;;;13.64;100.00;100893.88;5032683;28;20112;-86
2023/05/04 09:14:40;;;;;;;14.57;10.07;;;;;;;12.97;100.00;100781.97;5050491;28;20108;-86
2023/05/04 09:17:24;;;;;;;17.52;12.52;;;;;;;13.50;100.00;100877.91;5050785;28;20021;-88
2023/05/04 09:19:58;;;;;;;17.05;11.27;;;;;;;13.19;100.00;100826.75;5050503;28;20037;-87
2023/05/04 09:22:24;;;;;;;20.20;12.45;;;;;;;13.57;100.00;100897.13;5032696;28;20025;-85
2023/05/04 09:24:50;;;;;;;14.75;11.73;;;;;;;13.48;100.00;100874.38;5032676;28;20368;-87
2023/05/04 09:27:16;;;;;;;18.50;13.93;;;;;;;13.48;100.00;100873.50;5050201;28;20414;-87
2023/05/04 09:29:43;;;;;;;21.42;15.15;;;;;;;13.67;100.00;100903.47;5050214;28;20032;-87
2023/05/04 09:32:13;;;;;;;21.92;14.70;;;;;;;13.63;100.00;100893.84;5032476;28;20033;-87
2023/05/04 09:34:52;;;;;;;20.33;13.60;;;;;;;13.32;100.00;100846.16;5049867;28;20037;-87
2023/05/04 09:37:21;;;;;;;24.33;15.00;;;;;;;13.58;100.00;100885.91;5032289;28;20029;-87
2023/05/04 09:39:54;;;;;;;23.95;16.33;;;;;;;12.88;100.00;100761.84;5050061;28;20502;-91
2023/05/04 09:42:24;;;;;;;28.35;16.80;;;;;;;13.59;100.00;100864.34;5033042;28;20044;-88
2023/05/04 09:44:59;;;;;;;26.25;17.60;;;;;;;13.64;100.00;100869.69;5033145;28;20509;-89
2023/05/04 09:47:43;;;;;;;20.83;13.73;;;;;;;13.60;100.00;100863.50;5032486;28;20036;-88
2023/05/04 09:50:15;;;;;;;21.10;14.57;;;;;;;13.69;100.00;100874.16;5050013;28;20524;-87
2023/05/04 09:52:42;;;;;;;20.17;13.52;;;;;;;13.77;100.00;100868.31;5032906;28;20032;-88
2023/05/04 09:55:11;;;;;;;22.77;14.57;;;;;;;13.50;100.00;100822.56;5032472;28;20029;-88
2023/05/04 09:57:40;;;;;;;16.30;12.68;;;;;;;13.47;100.00;100812.06;5050022;28;20071;-91
2023/05/04 10:00:11;;;;;;;20.17;12.38;;;;;;;13.69;100.00;100835.22;5032842;28;20056;-92
2023/05/04 10:02:37;;;;;;;20.02;13.50;;;;;;;13.78;100.00;100836.34;5035339;28;20495;-89
2023/05/04 10:05:05;;;;;;;21.88;15.32;;;;;;;13.95;100.00;100849.84;5036213;28;20083;-89
2023/05/04 10:07:32;;;;;;;25.52;15.98;;;;;;;13.88;100.00;100834.09;5036338;28;20025;-88
2023/05/04 10:09:58;;;;;;;21.38;15.30;;;;;;;14.07;100.00;100840.69;5036265;28;20029;-88
2023/05/04 10:12:24;;;;;;;22.25;15.82;;;;;;;14.17;100.00;100835.75;5036039;28;20036;-94
2023/05/04 10:14:50;;;;;;;20.42;15.27;;;;;;;13.75;100.00;100770.53;5030835;28;20127;-90
2023/05/04 10:17:42;;;;;;;22.80;13.90;;;;;;;13.43;100.00;100704.75;5035798;28;20129;-90
2023/05/04 10:20:16;;;;;;;19.27;13.90;;;;;;;14.24;100.00;100829.88;4992188;28;20133;-92
2023/05/04 10:23:04;;;;;;;21.98;14.35;;;;;;;14.20;100.00;100825.44;4992331;28;20042;-89
2023/05/04 10:25:51;;;;;;;20.40;14.00;;;;;;;14.40;100.00;100838.97;4992275;28;20042;-90
2023/05/04 10:29:03;;;;;;;22.30;13.75;;;;;;;14.46;100.00;100833.94;4977977;28;20038;-91
2023/05/04 10:31:42;;;;;;;20.52;12.95;;;;;;;14.46;100.00;100840.88;4956378;28;20183;-90
2023/05/04 10:34:09;;;;;;;23.00;13.98;;;;;;;14.29;100.00;100794.53;4964239;28;20082;-91
2023/05/04 10:36:38;;;;;;;22.48;14.50;;;;;;;14.50;100.00;100816.72;4973128;28;20045;-91
2023/05/04 10:39:04;;;;;;;20.75;14.23;;;;;;;14.59;100.00;100822.16;4957449;28;20219;-90
2023/05/04 10:41:31;;;;;;;25.85;16.15;;;;;;;13.97;100.00;100721.84;4972694;28;20157;-91
2023/05/04 10:44:05;;;;;;;24.00;17.20;;;;;;;14.31;100.00;100766.03;4956537;28;20539;-89
2023/05/04 10:46:31;;;;;;;29.83;19.98;;;;;;;14.75;100.00;100814.81;4956656;28;20038;-90
2023/05/04 10:48:56;;;;;;;35.25;20.60;;;;;;;14.99;100.00;100815.41;4968407;28;20050;-90
2023/05/04 10:51:23;;;;;;;26.55;15.73;;;;;;;14.53;100.00;100718.97;4971814;28;20092;-90
2023/05/04 10:53:50;;;;;;;24.33;16.35;;;;;;;15.18;100.00;100823.66;4973732;28;20184;-90
2023/05/04 10:56:26;;;;;;;24.83;16.13;;;;;;;14.44;100.00;100679.75;4959043;28;20594;-93
2023/05/04 10:58:53;;;;;;;27.70;16.20;;;;;;;15.22;100.00;100820.28;4976527;28;20444;-90
2023/05/04 11:01:20;;;;;;;23.85;16.52;;;;;;;15.15;100.00;100820.97;4992962;28;20647;-90
2023/05/04 11:03:47;;;;;;;22.38;15.77;;;;;;;14.96;100.00;100802.31;4990570;28;20044;-93
2023/05/04 11:06:22;;;;;;;26.08;17.83;;;;;;;14.94;100.00;100798.84;4991134;28;20048;-92
2023/05/04 11:08:58;;;;;;;27.38;19.17;;;;;;;15.12;100.00;100826.13;5034022;28;20115;-93